.
WxDataArchive / Data Records for 2015-11-25
2015-11-24 November 2015 2015-11-26

Data Records for Wednesday, 25 November 2015

Time	Temp	Chill	HIndex	Humid	Dewpt	 Wind 	HiWind	WindDir	Rain 	Barom
-----	----	-----	------	-----	-----	------	------	-------	-----	-----
00:00	31.2	31.2	31.2	93	29.4	0	1	112	0.00	30.347 
00:05	31.3	31.3	31.3	93	29.5	0	0	---	0.00	30.347 
00:10	31.3	31.3	31.3	93	29.5	0	1	112	0.00	30.347 
00:15	31.5	31.5	31.5	93	29.7	0	0	---	0.00	30.345 
00:20	31.5	31.5	31.5	93	29.7	0	0	---	0.00	30.345 
00:25	31.5	31.5	31.5	93	29.7	0	0	---	0.00	30.345 
00:30	31.3	31.3	31.3	93	29.5	0	1	112	0.00	30.346 
00:35	31.3	31.3	31.3	93	29.5	0	0	---	0.00	30.346 
00:40	31.2	31.2	31.2	93	29.4	0	0	---	0.00	30.346 
00:45	31.0	31.0	31.0	93	29.2	0	1	112	0.00	30.346 
00:50	30.9	30.9	30.9	93	29.1	0	0	---	0.00	30.346 
00:55	30.9	30.9	30.9	93	29.1	0	1	112	0.00	30.346 
01:00	30.9	30.9	30.9	93	29.1	0	0	---	0.00	30.346 
01:05	30.9	30.9	30.9	93	29.1	0	1	112	0.00	30.346 
01:10	30.9	30.9	30.9	93	29.1	0	2	112	0.00	30.346 
01:15	30.9	30.9	30.9	93	29.1	0	0	---	0.00	30.347 
01:20	30.7	30.7	30.7	93	28.9	0	1	112	0.00	30.347 
01:25	30.7	30.7	30.7	93	28.9	0	1	112	0.00	30.347 
01:30	30.7	30.7	30.7	93	28.9	0	1	112	0.00	30.344 
01:35	30.9	30.9	30.9	93	29.1	0	0	---	0.00	30.344 
01:40	30.9	30.9	30.9	93	29.1	0	0	---	0.00	30.344 
01:45	30.7	30.7	30.7	93	28.9	0	0	---	0.00	30.344 
01:50	30.6	30.6	30.6	93	28.8	0	0	---	0.00	30.344 
01:55	30.6	30.6	30.6	93	28.8	0	1	112	0.00	30.344 
02:00	30.7	30.7	30.7	93	28.9	0	1	112	0.00	30.346 
02:05	30.7	30.7	30.7	93	28.9	0	0	---	0.00	30.346 
02:10	30.6	30.6	30.6	93	28.8	0	1	112	0.00	30.346 
02:15	30.6	30.6	30.6	93	28.8	0	0	---	0.00	30.347 
02:20	30.4	30.4	30.4	93	28.6	0	0	---	0.00	30.347 
02:25	30.3	30.3	30.3	93	28.5	0	0	---	0.00	30.347 
02:30	30.1	30.1	30.1	93	28.3	0	0	---	0.00	30.352 
02:35	30.0	30.0	30.0	93	28.2	0	0	---	0.00	30.352 
02:40	29.7	29.7	29.7	93	27.9	0	0	---	0.00	30.352 
02:45	29.5	29.5	29.5	93	27.7	0	0	---	0.00	30.353 
02:50	29.5	29.5	29.5	93	27.7	0	0	---	0.00	30.353 
02:55	29.4	29.4	29.4	93	27.6	0	0	---	0.00	30.353 
03:00	29.3	29.3	29.3	93	27.5	0	0	---	0.00	30.362 
03:05	29.1	29.1	29.1	93	27.3	0	0	---	0.00	30.362 
03:10	29.3	29.3	29.3	93	27.5	0	0	---	0.00	30.362 
03:15	29.4	29.4	29.4	93	27.6	0	0	---	0.00	30.359 
03:20	29.5	29.5	29.5	93	27.7	0	0	---	0.00	30.359 
03:25	29.5	29.5	29.5	93	27.7	0	0	---	0.00	30.359 
03:30	29.5	29.5	29.5	93	27.7	0	0	---	0.00	30.362 
03:35	29.4	29.4	29.4	93	27.6	0	0	---	0.00	30.362 
03:40	29.3	29.3	29.3	93	27.5	0	0	---	0.00	30.362 
03:45	29.1	29.1	29.1	92	27.1	0	0	---	0.00	30.365 
03:50	29.0	29.0	29.0	93	27.2	0	0	---	0.00	30.365 
03:55	28.8	28.8	28.8	92	26.8	0	0	---	0.00	30.365 
04:00	28.8	28.8	28.8	93	27.0	0	0	---	0.00	30.364 
04:05	28.8	28.8	28.8	93	27.0	0	0	---	0.00	30.364 
04:10	28.8	28.8	28.8	93	27.0	0	0	---	0.00	30.364 
04:15	28.8	28.8	28.8	93	27.0	0	0	---	0.00	30.366 
04:20	28.8	28.8	28.8	93	27.0	0	0	---	0.00	30.366 
04:25	28.8	28.8	28.8	93	27.0	0	0	---	0.00	30.366 
04:30	29.0	29.0	29.0	93	27.2	0	0	---	0.00	30.366 
04:35	29.1	29.1	29.1	93	27.3	0	0	---	0.00	30.366 
04:40	29.1	29.1	29.1	93	27.3	0	0	---	0.00	30.366 
04:45	29.1	29.1	29.1	93	27.3	0	0	---	0.00	30.367 
04:50	29.1	29.1	29.1	93	27.3	0	0	---	0.00	30.367 
04:55	29.1	29.1	29.1	93	27.3	0	0	---	0.00	30.367 
05:00	29.1	29.1	29.1	93	27.3	0	0	---	0.00	30.367 
05:05	29.1	29.1	29.1	93	27.3	0	0	---	0.00	30.367 
05:10	29.3	29.3	29.3	93	27.5	0	0	---	0.00	30.367 
05:15	29.3	29.3	29.3	93	27.5	0	0	---	0.00	30.369 
05:20	29.1	29.1	29.1	93	27.3	0	0	---	0.00	30.369 
05:25	29.0	29.0	29.0	92	27.0	0	0	---	0.00	30.369 
05:30	28.7	28.7	28.7	92	26.7	0	0	---	0.00	30.369 
05:35	28.5	28.5	28.5	92	26.5	0	0	---	0.00	30.369 
05:40	28.4	28.4	28.4	92	26.4	0	0	---	0.00	30.369 
05:45	28.2	28.2	28.2	92	26.2	0	0	---	0.00	30.371 
05:50	27.9	27.9	27.9	92	25.9	0	0	---	0.00	30.371 
05:55	27.8	27.8	27.8	92	25.8	0	0	---	0.00	30.371 
06:00	27.6	27.6	27.6	92	25.6	0	0	---	0.00	30.370 
06:05	27.5	27.5	27.5	92	25.5	0	0	---	0.00	30.370 
06:10	27.5	27.5	27.5	93	25.7	0	0	---	0.00	30.370 
06:15	27.5	27.5	27.5	93	25.7	0	0	---	0.00	30.373 
06:20	27.5	27.5	27.5	92	25.5	0	0	---	0.00	30.373 
06:25	27.3	27.3	27.3	92	25.3	0	0	---	0.00	30.373 
06:30	27.3	27.3	27.3	93	25.5	0	0	---	0.00	30.376 
06:35	27.3	27.3	27.3	93	25.5	0	0	---	0.00	30.376 
06:40	27.6	27.6	27.6	93	25.8	0	0	---	0.00	30.376 
06:45	27.6	27.6	27.6	93	25.8	0	0	---	0.00	30.377 
06:50	27.8	27.8	27.8	93	26.0	0	0	---	0.00	30.377 
06:55	28.1	28.1	28.1	93	26.3	0	0	---	0.00	30.377 
07:00	28.2	28.2	28.2	93	26.4	0	1	112	0.00	30.379 
07:05	28.4	28.4	28.4	93	26.6	0	0	---	0.00	30.379 
07:10	28.5	28.5	28.5	93	26.7	0	0	---	0.00	30.379 
07:15	28.5	28.5	28.5	93	26.7	0	0	---	0.00	30.378 
07:20	28.7	28.7	28.7	93	26.9	0	0	---	0.00	30.378 
07:25	28.7	28.7	28.7	93	26.9	0	0	---	0.00	30.378 
07:30	28.7	28.7	28.7	93	26.9	0	0	---	0.00	30.377 
07:35	28.5	28.5	28.5	93	26.7	0	0	---	0.00	30.377 
07:40	28.4	28.4	28.4	93	26.6	0	0	---	0.00	30.377 
07:45	28.2	28.2	28.2	92	26.2	0	0	---	0.00	30.382 
07:50	28.1	28.1	28.1	92	26.1	0	0	---	0.00	30.382 
07:55	27.9	27.9	27.9	93	26.1	0	0	---	0.00	30.382 
08:00	27.9	27.9	27.9	93	26.1	0	1	112	0.00	30.383 
08:05	28.1	28.1	28.1	93	26.3	0	0	---	0.01	30.383 
08:10	28.1	28.1	28.1	93	26.3	0	0	---	0.00	30.383 
08:15	28.5	28.5	28.5	93	26.7	0	0	---	0.00	30.387 
08:20	29.0	29.0	29.0	93	27.2	0	0	---	0.00	30.387 
08:25	29.4	29.4	29.4	93	27.6	0	0	---	0.00	30.387 
08:30	29.7	29.7	29.7	93	27.9	0	1	22	0.00	30.386 
08:35	30.0	30.0	30.0	93	28.2	0	0	---	0.00	30.386 
08:40	30.4	30.4	30.4	93	28.6	0	1	22	0.00	30.386 
08:45	30.9	30.9	30.9	93	29.1	0	1	22	0.00	30.386 
08:50	31.2	31.2	31.2	93	29.4	0	0	---	0.00	30.386 
08:55	31.6	31.6	31.6	93	29.8	0	0	---	0.00	30.386 
09:00	31.9	31.9	31.9	93	30.1	0	0	---	0.00	30.387 
09:05	32.4	32.4	32.4	93	30.6	0	0	---	0.00	30.387 
09:10	32.8	32.8	32.8	93	31.0	0	0	---	0.00	30.387 
09:15	33.5	33.5	33.5	93	31.7	0	1	22	0.00	30.392 
09:20	34.3	34.3	34.3	93	32.5	0	1	22	0.00	30.392 
09:25	35.3	35.3	35.3	92	33.2	0	1	22	0.00	30.392 
09:30	36.0	36.0	36.0	91	33.6	0	1	22	0.00	30.395 
09:35	36.5	36.5	36.5	90	33.9	0	0	---	0.00	30.395 
09:40	36.8	36.8	36.8	89	33.9	0	1	22	0.00	30.395 
09:45	37.0	37.0	37.0	89	34.1	0	0	---	0.00	30.394 
09:50	37.2	37.2	37.2	88	34.0	0	0	---	0.00	30.394 
09:55	37.5	37.5	37.5	88	34.3	0	2	22	0.00	30.394 
10:00	38.0	38.0	38.0	86	34.2	0	1	22	0.00	30.395 
10:05	38.6	38.6	38.6	85	34.5	0	1	22	0.00	30.395 
10:10	39.1	39.1	39.1	84	34.7	0	1	22	0.00	30.395 
10:15	39.6	39.6	39.6	83	34.9	0	1	22	0.00	30.390 
10:20	40.2	40.2	40.2	82	35.2	0	2	22	0.00	30.390 
10:25	40.9	40.9	40.9	80	35.2	0	2	45	0.00	30.390 
10:30	41.8	41.8	41.8	77	35.1	0	3	45	0.00	30.391 
10:35	42.8	42.8	42.8	73	34.8	0	3	45	0.00	30.391 
10:40	43.6	43.6	43.6	69	34.1	0	3	45	0.00	30.391 
10:45	44.3	44.3	44.3	66	33.7	0	2	135	0.00	30.388 
10:50	45.1	45.1	45.1	64	33.7	0	3	135	0.00	30.388 
10:55	45.4	45.4	45.4	62	33.2	2	4	90	0.01	30.388 
11:00	45.8	45.8	45.8	61	33.1	1	4	90	0.00	30.388 
11:05	46.0	46.0	46.0	61	33.3	0	2	90	0.01	30.388 
11:10	46.2	46.2	46.2	60	33.1	1	4	90	0.00	30.388 
11:15	46.5	46.5	46.5	62	34.2	0	2	90	0.00	30.391 
11:20	47.0	47.0	47.0	61	34.3	1	4	90	0.00	30.391 
11:25	47.3	47.3	47.3	60	34.1	0	3	90	0.01	30.391 
11:30	47.6	47.6	47.6	58	33.6	1	5	90	0.00	30.386 
11:35	47.9	47.9	47.9	59	34.3	0	3	112	0.00	30.386 
11:40	48.2	48.2	48.2	59	34.6	1	2	112	0.01	30.386 
11:45	48.5	48.5	48.5	59	34.8	1	3	112	0.00	30.378 
11:50	48.9	48.9	48.9	58	34.8	1	3	112	0.00	30.378 
11:55	49.2	49.2	49.2	57	34.6	1	5	112	0.00	30.378 
12:00	49.5	49.5	49.5	57	34.9	1	5	90	0.01	30.372 
12:05	49.8	49.8	49.8	57	35.2	1	6	112	0.00	30.372 
12:10	50.2	50.2	50.2	57	35.6	1	4	90	0.00	30.372 
12:15	50.5	50.5	50.5	56	35.4	1	3	90	0.00	30.368 
12:20	50.7	50.7	50.7	54	34.7	1	6	90	0.00	30.368 
12:25	51.0	51.0	51.0	54	34.9	1	3	90	0.01	30.368 
12:30	51.1	51.1	51.1	54	35.0	1	5	90	0.00	30.354 
12:35	51.4	51.4	51.4	54	35.3	1	3	112	0.00	30.354 
12:40	51.6	51.6	51.6	54	35.5	0	3	90	0.00	30.354 
12:45	51.9	51.9	51.9	54	35.8	1	4	90	0.00	30.340 
12:50	52.2	52.2	52.2	54	36.1	1	3	90	0.00	30.340 
12:55	52.5	52.5	52.5	53	35.9	2	6	135	0.00	30.340 
13:00	52.6	52.6	52.6	54	36.4	1	3	90	0.00	30.336 
13:05	52.8	52.8	52.8	53	36.1	1	6	112	0.00	30.336 
13:10	52.9	52.9	52.9	52	35.8	2	6	112	0.00	30.336 
13:15	53.2	53.2	53.2	50	35.0	2	5	112	0.00	30.321 
13:20	53.3	53.3	53.3	49	34.6	1	6	90	0.00	30.321 
13:25	53.6	53.6	53.6	50	35.4	1	5	112	0.00	30.321 
13:30	53.8	53.8	53.8	50	35.6	2	6	90	0.00	30.316 
13:35	53.9	53.9	53.9	50	35.7	2	4	135	0.00	30.316 
13:40	54.1	54.1	54.1	49	35.4	2	6	112	0.00	30.316 
13:45	54.2	54.2	54.2	47	34.4	2	10	112	0.00	30.305 
13:50	54.4	54.4	54.4	48	35.1	1	5	90	0.00	30.305 
13:55	54.5	54.5	54.5	46	34.1	2	7	90	0.00	30.305 
14:00	54.7	54.7	54.7	46	34.3	2	5	90	0.00	30.290 
14:05	54.8	54.8	54.8	46	34.4	1	4	68	0.00	30.290 
14:10	55.0	55.0	55.0	46	34.6	2	7	68	0.00	30.290 
14:15	55.0	55.0	55.0	46	34.6	2	5	112	0.00	30.290 
14:20	55.0	55.0	55.0	46	34.6	2	5	90	0.00	30.290 
14:25	55.0	55.0	55.0	45	34.1	2	10	112	0.00	30.290 
14:30	55.1	55.1	55.1	44	33.6	2	6	90	0.00	30.282 
14:35	55.3	55.3	55.3	43	33.2	2	7	90	0.00	30.282 
14:40	55.3	55.3	55.3	43	33.2	2	6	135	0.00	30.282 
14:45	55.3	55.3	55.3	43	33.2	3	6	90	0.00	30.276 
14:50	55.4	55.4	55.4	44	33.9	1	3	90	0.00	30.276 
14:55	55.6	55.6	55.6	44	34.0	2	9	90	0.00	30.276 
15:00	55.6	55.6	55.6	45	34.6	2	9	90	0.00	30.272 
15:05	55.7	55.7	55.7	45	34.7	2	7	90	0.00	30.272 
15:10	55.7	55.7	55.7	43	33.6	2	6	90	0.00	30.272 
15:15	55.9	55.9	55.9	43	33.7	2	5	90	0.00	30.273 
15:20	55.9	55.9	55.9	43	33.7	1	7	90	0.00	30.273 
15:25	55.9	55.9	55.9	43	33.7	1	4	68	0.00	30.273 
15:30	55.7	55.7	55.7	44	34.1	1	3	90	0.00	30.275 
15:35	55.6	55.6	55.6	43	33.5	1	4	90	0.00	30.275 
15:40	55.6	55.6	55.6	46	35.2	1	5	90	0.00	30.275 
15:45	55.4	55.4	55.4	46	35.0	1	3	68	0.00	30.283 
15:50	55.4	55.4	55.4	46	35.0	1	3	90	0.00	30.283 
15:55	55.4	55.4	55.4	47	35.5	0	2	112	0.00	30.283 
16:00	55.4	55.4	55.4	48	36.0	0	2	112	0.00	30.288 
16:05	55.4	55.4	55.4	49	36.6	0	2	112	0.00	30.288 
16:10	55.3	55.3	55.3	46	34.9	1	4	68	0.00	30.288 
16:15	55.1	55.1	55.1	46	34.7	1	3	90	0.00	30.289 
16:20	55.0	55.0	55.0	46	34.6	0	2	68	0.00	30.289 
16:25	54.7	54.7	54.7	47	34.9	0	1	68	0.00	30.289 
16:30	54.4	54.4	54.4	48	35.1	0	1	68	0.00	30.296 
16:35	53.9	53.9	53.9	48	34.7	0	1	68	0.00	30.296 
16:40	53.5	53.5	53.5	48	34.3	0	1	68	0.00	30.296 
16:45	53.2	53.2	53.2	49	34.5	0	0	---	0.00	30.304 
16:50	52.8	52.8	52.8	49	34.2	0	0	---	0.00	30.304 
16:55	52.3	52.3	52.3	49	33.7	0	2	68	0.00	30.304 
17:00	52.2	52.2	52.2	49	33.6	0	3	68	0.00	30.292 
17:05	52.2	52.2	52.2	50	34.1	0	1	68	0.00	30.292 
17:10	51.9	51.9	51.9	50	33.9	0	1	68	0.00	30.292 
17:15	51.6	51.6	51.6	50	33.6	0	0	---	0.00	30.297 
17:20	51.1	51.1	51.1	51	33.6	0	0	---	0.00	30.297 
17:25	50.7	50.7	50.7	52	33.7	0	0	---	0.00	30.297 
17:30	50.1	50.1	50.1	53	33.6	0	0	---	0.00	30.310 
17:35	49.5	49.5	49.5	54	33.6	0	0	---	0.00	30.310 
17:40	48.9	48.9	48.9	54	33.0	0	0	---	0.00	30.310 
17:45	48.3	48.3	48.3	56	33.3	0	0	---	0.00	30.315 
17:50	47.6	47.6	47.6	58	33.6	0	0	---	0.00	30.315 
17:55	47.0	47.0	47.0	58	33.0	0	0	---	0.00	30.315 
18:00	46.2	46.2	46.2	60	33.1	0	0	---	0.00	30.327 
18:05	45.7	45.7	45.7	62	33.4	0	0	---	0.00	30.327 
18:10	45.1	45.1	45.1	63	33.3	0	1	68	0.00	30.327 
18:15	45.1	45.1	45.1	63	33.3	0	1	68	0.00	30.326 
18:20	45.4	45.4	45.4	62	33.2	0	0	---	0.00	30.326 
18:25	45.4	45.4	45.4	62	33.2	0	1	68	0.00	30.326 
18:30	45.8	45.8	45.8	60	32.7	0	2	68	0.00	30.327 
18:35	46.2	46.2	46.2	59	32.7	0	1	68	0.00	30.327 
18:40	46.5	46.5	46.5	59	33.0	0	0	---	0.00	30.327 
18:45	46.5	46.5	46.5	59	33.0	0	0	---	0.00	30.327 
18:50	46.5	46.5	46.5	58	32.5	0	1	68	0.00	30.327 
18:55	46.5	46.5	46.5	58	32.5	0	1	68	0.00	30.327 
19:00	46.8	46.8	46.8	57	32.4	0	2	68	0.00	30.326 
19:05	47.0	47.0	47.0	56	32.1	0	1	68	0.00	30.326 
19:10	47.3	47.3	47.3	55	32.0	0	2	68	0.00	30.326 
19:15	47.7	47.7	47.7	54	31.9	0	3	112	0.00	30.327 
19:20	47.9	47.9	47.9	54	32.1	0	3	112	0.00	30.327 
19:25	48.0	48.0	48.0	54	32.2	0	1	112	0.00	30.327 
19:30	48.0	48.0	48.0	54	32.2	0	2	112	0.00	30.327 
19:35	48.0	48.0	48.0	54	32.2	0	2	112	0.00	30.327 
19:40	48.0	48.0	48.0	54	32.2	0	2	112	0.00	30.327 
19:45	48.0	48.0	48.0	54	32.2	0	2	112	0.00	30.327 
19:50	48.0	48.0	48.0	55	32.6	0	2	112	0.00	30.327 
19:55	47.9	47.9	47.9	54	32.1	0	2	112	0.00	30.327 
20:00	48.0	48.0	48.0	54	32.2	0	2	158	0.00	30.328 
20:05	48.0	48.0	48.0	54	32.2	0	2	158	0.00	30.328 
20:10	48.2	48.2	48.2	53	31.9	0	4	112	0.00	30.328 
20:15	48.5	48.5	48.5	52	31.7	0	2	112	0.00	30.325 
20:20	48.8	48.8	48.8	52	32.0	0	2	112	0.00	30.325 
20:25	48.8	48.8	48.8	52	32.0	0	1	112	0.00	30.325 
20:30	48.8	48.8	48.8	52	32.0	0	1	112	0.00	30.332 
20:35	48.8	48.8	48.8	52	32.0	0	1	112	0.00	30.332 
20:40	48.8	48.8	48.8	51	31.5	0	2	112	0.00	30.332 
20:45	48.8	48.8	48.8	51	31.5	0	2	112	0.00	30.333 
20:50	48.8	48.8	48.8	50	31.0	0	2	112	0.00	30.333 
20:55	48.8	48.8	48.8	50	31.0	0	2	112	0.00	30.333 
21:00	48.8	48.8	48.8	50	31.0	1	3	112	0.00	30.333 
21:05	48.8	48.8	48.8	50	31.0	1	2	112	0.00	30.333 
21:10	48.9	48.9	48.9	50	31.1	1	3	68	0.00	30.333 
21:15	48.9	48.9	48.9	50	31.1	1	4	68	0.00	30.325 
21:20	48.9	48.9	48.9	50	31.1	0	3	68	0.00	30.325 
21:25	48.9	48.9	48.9	51	31.6	1	3	68	0.00	30.325 
21:30	48.8	48.8	48.8	51	31.5	0	1	68	0.00	30.327 
21:35	48.5	48.5	48.5	51	31.2	1	4	68	0.00	30.327 
21:40	48.5	48.5	48.5	51	31.2	1	3	68	0.00	30.327 
21:45	48.3	48.3	48.3	51	31.0	0	3	68	0.00	30.327 
21:50	48.0	48.0	48.0	51	30.7	0	3	68	0.00	30.327 
21:55	47.9	47.9	47.9	52	31.1	1	3	68	0.00	30.327 
22:00	47.7	47.7	47.7	52	30.9	1	3	68	0.00	30.320 
22:05	47.7	47.7	47.7	52	30.9	1	4	68	0.00	30.320 
22:10	47.6	47.6	47.6	53	31.3	1	3	68	0.00	30.320 
22:15	47.4	47.4	47.4	54	31.6	1	2	68	0.00	30.317 
22:20	47.3	47.3	47.3	54	31.5	0	3	68	0.00	30.317 
22:25	47.3	47.3	47.3	54	31.5	1	3	68	0.00	30.317 
22:30	47.4	47.4	47.4	54	31.6	1	5	90	0.00	30.317 
22:35	47.4	47.4	47.4	54	31.6	1	3	90	0.00	30.317 
22:40	47.6	47.6	47.6	54	31.8	1	3	68	0.00	30.317 
22:45	47.7	47.7	47.7	54	31.9	1	4	90	0.00	30.313 
22:50	47.9	47.9	47.9	54	32.1	1	3	45	0.00	30.313 
22:55	47.9	47.9	47.9	55	32.5	1	4	90	0.00	30.313 
23:00	48.0	48.0	48.0	55	32.6	0	2	90	0.00	30.314 
23:05	48.0	48.0	48.0	56	33.1	0	2	90	0.00	30.314 
23:10	48.0	48.0	48.0	56	33.1	0	1	90	0.00	30.314 
23:15	48.0	48.0	48.0	56	33.1	0	3	90	0.00	30.316 
23:20	48.0	48.0	48.0	56	33.1	0	2	90	0.00	30.316 
23:25	48.2	48.2	48.2	56	33.2	0	3	68	0.00	30.316 
23:30	48.0	48.0	48.0	57	33.5	0	1	68	0.00	30.323 
23:35	48.0	48.0	48.0	56	33.1	1	3	68	0.00	30.323 
23:40	48.0	48.0	48.0	56	33.1	0	2	22	0.00	30.323 
23:45	48.0	48.0	48.0	57	33.5	0	3	22	0.00	30.324 
23:50	48.0	48.0	48.0	57	33.5	1	3	45	0.00	30.324 
23:55	48.0	48.0	48.0	57	33.5	1	2	45	0.00	30.324 

CoCoRaHS
IN-AL-39
A2 Web Hosting
Creative Commons License
GoDaddy
search engine by freefind advanced

loaded 2018-11-20 07:22:54 • last modified 2010-11-18 10:43:29
Privacy PolicyDisclaimer
• wx.awcolley.com is powered by PmWiki v.2002016 •
• all content (unless otherwise noted) © 2018 A W Colley